EGWUEBCV

Guest
Details From EGWU - RAF Northolt
To EBCV - Chievres AB
Flight Number -
Tags generated
Created
Modified
Stats Distance 171 nm / 316 km
Max Altitude 21,400 ft / 6,523 m
Waypoints 3
Social Downloads 1
Likes 0
Share VATSIM

Download

Looking for another format? Having issues loading an existing format? Contact us
Advertisement - Login to hide

Notes

Basic altitude profile: - Ascent Rate: 3000ft/min - Ascent Speed: 180kts - Cruise Altitude: 10ft - Cruise Speed: 230kts - Descent Rate: -1200ft/min - Descent Speed: 150kts Options: - Use NATs: yes - Use PACOTS: yes - Use low airways: yes - Use high airways: yes

Route

EGWU DVR EBCV

ID Type Via Altitude Latitude Longitude Leg Dist Tot Dist Heading (true) Name
O EGWU APT - 0 ft / 0 m 51.55270˚ -0.41959˚ - 0 nm - RAF Northolt
DVR VOR - 21,400 ft / 6,523 m 51.16250˚ 1.35917˚ 70 nm 70 nm 109° / 110° DOVER VOR-DME
O EBCV APT - 0 ft / 0 m 50.57584˚ 3.83108˚ 100 nm 170 nm 110° / 112° Chievres AB

Altitude Profile

Advertisement - Login to hide

Weather


0- 5 10 15 20 25 30 35+ Temperature / ° C

Clouds and Precipitation
Forecast for 2017-12-14 06:00 UTC. Updated an hour ago

Ground ~20,000 ft ~40,000 ft Winds

EGWU

Details ICAO EGWU (NHT)
Name RAF Northolt
Region United Kingdom
Timezone Europe/London (UTC+0.0)
Stats Elevation 124 ft / 38 m (AMSL)
Location 51.552696° -0.419593°
Runways 1
Magnetic Variation 0.555° W

METAR

EGWU 140150Z AUTO 26015KT 9999 // FEW210/// 03/M00 Q0993

Decode

TAF

TAF EGWU 132010Z 1321/1415 CNL= TAF LEAS 132000Z 1321/1421 27009KT 9999 FEW010 BKN030 TX16/1414Z TN09/1421Z TEMPO 1321/1401 29015G25KT TEMPO 1321/1409 3000 -RADZ PROB40 TEMPO 1321/1409 BKN010

Decode

Departure Runways

ID Width Length Bearing (true) Bearing (mag) Surface Threshold Offset Overrun Length
07 151 ft / 46 m 5,531 ft / 1,686 m 69.62° 70.17° Asphalt 302 ft / 92 m 0 ft / 0 m
25 151 ft / 46 m 5,531 ft / 1,686 m 249.64° 250.19° Asphalt 0 ft / 0 m 0 ft / 0 m

EBCV

Details ICAO EBCV
Name Chievres AB
Region Belgium
Timezone Europe/Brussels (UTC+1.0)
Stats Elevation 201 ft / 61 m (AMSL)
Location 50.575840° 3.831076°
Runways 1
Magnetic Variation 0.934° E

METAR

EBCV 140155Z AUTO 25014KT 9999 -DZ BKN027/// 04/02 Q0992 BLU

Decode

TAF

Not found

Destination Runways

ID Width Length Bearing (true) Bearing (mag) Surface Threshold Offset Overrun Length
08 164 ft / 50 m 6,288 ft / 1,917 m 79.82° 78.89° Asphalt 0 ft / 0 m 0 ft / 0 m
26 164 ft / 50 m 6,288 ft / 1,917 m 259.84° 258.91° Asphalt 0 ft / 0 m 0 ft / 0 m

Approach Navaids

Runway Type Ident Frequency Range Bearing (true) Bearing (mag) Slope Elevation
26 Localiser ICV 108.55 MHz 18 nm / 33 km 260.20° 259.26° - 201 ft / 61 m (AMSL)